| time (UTC) | temp C | wind direction | speed KPH | gust KPH | rain 1hr cm | rain 24hr cm | rain mn cm | humidity % | barometer mb |
| 20260506073018 | 18 | 240 | 0.0 | 0.0 | 0.00 | 0.00 | 0.00 | 62 | 1011.1 |
| 20260506071514 | 19 | 130 | 0.0 | 0.0 | 0.00 | 0.00 | 0.00 | 60 | 1011.4 |
| 20260506061509 | 19 | 283 | 0.0 | 1.6 | 0.00 | 0.00 | 0.00 | 53 | 1011.8 |
| 20260506044502 | 19 | 221 | 0.0 | 0.0 | 0.00 | 0.00 | 0.00 | 50 | 1011.9 |
| 20260506043101 | 19 | 177 | 0.0 | 3.2 | 0.00 | 0.00 | 0.00 | 49 | 1012.0 |
| 20260506041601 | 20 | 127 | 0.0 | 0.0 | 0.00 | 0.00 | 0.00 | 47 | 1011.9 |
| 20260506040053 | 20 | 249 | 0.0 | 0.0 | 0.00 | 0.00 | 0.00 | 47 | 1011.7 |
| 20260506034607 | 20 | 250 | 0.0 | 1.6 | 0.00 | 0.00 | 0.00 | 47 | 1011.8 |
| 20260506033052 | 20 | 206 | 0.0 | 1.6 | 0.00 | 0.00 | 0.00 | 47 | 1012.0 |
| 20260506031552 | 20 | 162 | 0.0 | 1.6 | 0.00 | 0.00 | 0.00 | 47 | 1012.2 |
| 20260506030051 | 20 | 224 | 0.0 | 1.6 | 0.00 | 0.00 | 0.00 | 48 | 1012.2 |
| 20260506024607 | 20 | 231 | 0.0 | 0.0 | 0.00 | 0.00 | 0.00 | 47 | 1012.1 |
| 20260506023049 | 20 | 277 | 0.0 | 0.0 | 0.00 | 0.00 | 0.00 | 47 | 1011.9 |
| 20260506021552 | 20 | 263 | 0.0 | 0.0 | 0.00 | 0.00 | 0.00 | 45 | 1011.7 |
| 20260506020051 | 20 | 188 | 0.0 | 0.0 | 0.00 | 0.00 | 0.00 | 46 | 1011.8 |
| 20260506014550 | 19 | 245 | 0.0 | 0.0 | 0.00 | 0.00 | 0.00 | 47 | 1011.8 |
| 20260506013101 | 20 | 245 | 0.0 | 0.0 | 0.00 | 0.00 | 0.00 | 45 | 1011.7 |
| 20260506011600 | 20 | 245 | 0.0 | 0.0 | 0.00 | 0.00 | 0.00 | 44 | 1011.4 |
| 20260506010046 | 21 | 245 | 0.0 | 0.0 | 0.00 | 0.00 | 0.00 | 41 | 1011.5 |
| 20260506004544 | 21 | 229 | 0.0 | 0.0 | 0.00 | 0.00 | 0.00 | 40 | 1011.8 |
| 20260506003045 | 22 | 228 | 0.0 | 0.0 | 0.00 | 0.00 | 0.00 | 38 | 1011.5 |
| 20260506001545 | 22 | 228 | 0.0 | 0.0 | 0.00 | 0.00 | 0.00 | 36 | 1011.4 |
| 20260506000043 | 23 | 248 | 0.0 | 1.6 | 0.00 | 0.00 | 0.00 | 35 | 1011.5 |
| 20260505234542 | 23 | 288 | 0.0 | 0.0 | 0.00 | 0.00 | 0.00 | 35 | 1011.4 |
| 20260505233040 | 23 | 114 | 0.0 | 1.6 | 0.00 | 0.00 | 0.00 | 36 | 1011.3 |
| 20260505231541 | 24 | 268 | 0.0 | 8.0 | 0.00 | 0.00 | 0.00 | 34 | 1011.2 |
| 20260505230051 | 25 | 47 | 0.0 | 0.0 | 0.00 | 0.00 | 0.00 | 34 | 1011.4 |
| 20260505224538 | 25 | 203 | 0.0 | 0.0 | 0.00 | 0.00 | 0.00 | 34 | 1011.2 |
| 20260505223047 | 26 | 298 | 0.0 | 0.0 | 0.00 | 0.00 | 0.00 | 31 | 1011.3 |
| 20260505221537 | 27 | 223 | 0.0 | 8.0 | 0.00 | 0.00 | 0.00 | 28 | 1011.2 |
| 20260505220038 | 28 | 144 | 0.0 | 8.0 | 0.00 | 0.00 | 0.00 | 28 | 1011.1 |
| 20260505214530 | 27 | 201 | 0.0 | 12.9 | 0.00 | 0.00 | 0.00 | 27 | 1011.1 |
| 20260505213042 | 27 | 113 | 0.0 | 1.6 | 0.00 | 0.00 | 0.00 | 29 | 1011.5 |
| 20260505211528 | 27 | 124 | 0.0 | 6.4 | 0.00 | 0.00 | 0.00 | 29 | 1011.5 |
| 20260505210026 | 27 | 128 | 1.6 | 19.3 | 0.00 | 0.00 | 0.00 | 28 | 1011.6 |
| 20260505204523 | 27 | 188 | 0.0 | 6.4 | 0.00 | 0.00 | 0.00 | 28 | 1011.7 |
| 20260505203025 | 26 | 184 | 0.0 | 11.3 | 0.00 | 0.00 | 0.00 | 29 | 1011.9 |
| 20260505201517 | 26 | 79 | 0.0 | 1.6 | 0.00 | 0.00 | 0.00 | 30 | 1012.1 |
| 20260505200026 | 26 | 328 | 0.0 | 0.0 | 0.00 | 0.00 | 0.00 | 30 | 1012.4 |
| 20260505194510 | 25 | 166 | 0.0 | 12.9 | 0.00 | 0.00 | 0.00 | 32 | 1012.7 |
| 20260505193010 | 25 | 245 | 0.0 | 11.3 | 0.00 | 0.00 | 0.00 | 33 | 1012.7 |
| 20260505191508 | 25 | 50 | 0.0 | 12.9 | 0.00 | 0.00 | 0.00 | 35 | 1012.8 |
| 20260505190006 | 25 | 120 | 0.0 | 6.4 | 0.00 | 0.00 | 0.00 | 34 | 1013.0 |
| 20260505184505 | 25 | 157 | 0.0 | 3.2 | 0.00 | 0.00 | 0.00 | 33 | 1013.1 |
| 20260505183004 | 25 | 157 | 0.0 | 4.8 | 0.00 | 0.00 | 0.00 | 35 | 1013.3 |
| 20260505181505 | 25 | 178 | 0.0 | 9.7 | 0.00 | 0.00 | 0.00 | 32 | 1013.7 |
| 20260505180002 | 25 | 257 | 0.0 | 9.7 | 0.00 | 0.00 | 0.00 | 32 | 1013.9 |
| 20260505174600 | 25 | 183 | 0.0 | 4.8 | 0.00 | 0.00 | 0.00 | 33 | 1014.1 |
| 20260505173100 | 25 | 162 | 0.0 | 17.7 | 0.00 | 0.00 | 0.00 | 33 | 1014.1 |
| 20260505171557 | 25 | 289 | 0.0 | 3.2 | 0.00 | 0.00 | 0.00 | 33 | 1014.2 |
| 20260505170055 | 25 | 214 | 0.0 | 3.2 | 0.00 | 0.00 | 0.00 | 37 | 1014.2 |
| 20260505164600 | 24 | 221 | 0.0 | 14.5 | 0.00 | 0.00 | 0.00 | 34 | 1014.2 |
| 20260505163056 | 25 | 161 | 0.0 | 6.4 | 0.00 | 0.00 | 0.00 | 36 | 1014.3 |
| 20260505161550 | 24 | 259 | 0.0 | 1.6 | 0.00 | 0.00 | 0.00 | 36 | 1014.5 |
| 20260505153104 | 23 | 151 | 0.0 | 6.4 | 0.00 | 0.00 | 0.00 | 35 | 1014.5 |
| 20260505151553 | 23 | 226 | 1.6 | 16.1 | 0.00 | 0.00 | 0.00 | 37 | 1014.6 |
| 20260505124525 | 17 | 216 | 0.0 | 0.0 | 0.00 | 0.00 | 0.00 | 59 | 1014.1 |
| 20260505123018 | 17 | 216 | 0.0 | 1.6 | 0.00 | 0.00 | 0.00 | 56 | 1013.9 |
| 20260505121516 | 17 | 216 | 0.0 | 0.0 | 0.00 | 0.00 | 0.00 | 57 | 1014.0 |
| 20260505120011 | 15 | 224 | 0.0 | 0.0 | 0.00 | 0.00 | 0.00 | 63 | 1014.1 |
| 20260505114507 | 12 | 224 | 0.0 | 0.0 | 0.00 | 0.00 | 0.00 | 74 | 1013.7 |
| 20260505113005 | 10 | 224 | 0.0 | 0.0 | 0.00 | 0.00 | 0.00 | 77 | 1013.5 |
| 20260505111507 | 10 | 224 | 0.0 | 0.0 | 0.00 | 0.00 | 0.00 | 76 | 1013.3 |
| 20260505101603 | 11 | 224 | 0.0 | 0.0 | 0.00 | 0.00 | 0.00 | 69 | 1013.3 |
| 20260505100056 | 11 | 224 | 0.0 | 0.0 | 0.00 | 0.00 | 0.00 | 68 | 1013.5 |
| 20260505094558 | 11 | 259 | 0.0 | 0.0 | 0.00 | 0.00 | 0.00 | 68 | 1013.2 |
| 20260505093052 | 12 | 259 | 0.0 | 0.0 | 0.00 | 0.00 | 0.00 | 65 | 1013.1 |
| 20260505091557 | 12 | 259 | 0.0 | 0.0 | 0.00 | 0.00 | 0.00 | 64 | 1013.3 |
| 20260505090057 | 12 | 259 | 0.0 | 0.0 | 0.00 | 0.00 | 0.00 | 63 | 1013.5 |
| 20260505084550 | 12 | 259 | 0.0 | 0.0 | 0.00 | 0.00 | 0.00 | 62 | 1013.5 |
| 20260505083050 | 12 | 259 | 0.0 | 0.0 | 0.00 | 0.00 | 0.00 | 64 | 1013.5 |
| 20260505081558 | 11 | 259 | 0.0 | 0.0 | 0.00 | 0.00 | 0.00 | 65 | 1013.5 |